sensor_id;sensor_type;location;lat;lon;timestamp;pressure;altitude;pressure_sealevel;temperature;humidity
73700;BME280;62005;50.082;8.988;2022-12-18T15:42:02;101813.19;;;-3.14;81.97
73700;BME280;62005;50.082;8.988;2022-12-18T15:44:46;101772.28;;;-3.35;81.84
73700;BME280;62005;50.082;8.988;2022-12-18T15:47:15;101741.00;;;-3.55;81.50
73700;BME280;62005;50.082;8.988;2022-12-18T15:49:43;101758.94;;;-3.46;81.79
73700;BME280;62005;50.082;8.988;2022-12-18T15:52:11;101734.72;;;-3.66;81.86
73700;BME280;62005;50.082;8.988;2022-12-18T15:55:12;101746.16;;;-3.66;81.64
73700;BME280;62005;50.082;8.988;2022-12-18T15:58:00;101766.31;;;-3.51;81.78
73700;BME280;62005;50.082;8.988;2022-12-18T16:00:46;101816.34;;;-3.21;81.85
73700;BME280;62005;50.082;8.988;2022-12-18T16:03:14;101787.59;;;-3.40;82.00
73700;BME280;62005;50.082;8.988;2022-12-18T16:05:39;101726.56;;;-3.76;81.59
73700;BME280;62005;50.082;8.988;2022-12-18T16:08:11;101762.91;;;-3.53;81.90
73700;BME280;62005;50.082;8.988;2022-12-18T16:11:19;101798.25;;;-3.27;82.05
73700;BME280;62005;50.082;8.988;2022-12-18T16:25:28;101731.06;;;-3.78;82.00
73700;BME280;62005;50.082;8.988;2022-12-18T16:27:59;101760.31;;;-3.67;82.23
73700;BME280;62005;50.082;8.988;2022-12-18T16:30:33;101724.59;;;-3.86;82.42
73700;BME280;62005;50.082;8.988;2022-12-18T16:32:58;101709.03;;;-3.91;82.25
73700;BME280;62005;50.082;8.988;2022-12-18T16:35:28;101712.44;;;-3.89;82.21
73700;BME280;62005;50.082;8.988;2022-12-18T16:37:57;101763.47;;;-3.62;82.66
73700;BME280;62005;50.082;8.988;2022-12-18T16:40:25;101790.44;;;-3.43;82.48
73700;BME280;62005;50.082;8.988;2022-12-18T16:42:53;101752.41;;;-3.67;82.96
73700;BME280;62005;50.082;8.988;2022-12-18T16:45:18;101783.47;;;-3.44;83.12
73700;BME280;62005;50.082;8.988;2022-12-18T16:47:47;101705.44;;;-3.90;83.25
73700;BME280;62005;50.082;8.988;2022-12-18T16:50:15;101737.69;;;-3.71;82.81
73700;BME280;62005;50.082;8.988;2022-12-18T16:52:41;101754.63;;;-3.61;82.83
73700;BME280;62005;50.082;8.988;2022-12-18T16:55:26;101764.59;;;-3.52;82.92
73700;BME280;62005;50.082;8.988;2022-12-18T16:57:52;101744.06;;;-3.61;83.26
73700;BME280;62005;50.082;8.988;2022-12-18T17:00:20;101689.81;;;-3.93;83.44
73700;BME280;62005;50.082;8.988;2022-12-18T17:02:46;101677.56;;;-3.94;83.62
73700;BME280;62005;50.082;8.988;2022-12-18T17:05:25;101692.63;;;-3.82;83.87
73700;BME280;62005;50.082;8.988;2022-12-18T17:14:33;101687.59;;;-3.72;84.40
73700;BME280;62005;50.082;8.988;2022-12-18T17:17:19;101713.25;;;-3.48;84.03
73700;BME280;62005;50.082;8.988;2022-12-18T17:19:50;101766.00;;;-3.20;83.81
73700;BME280;62005;50.082;8.988;2022-12-18T17:22:50;101765.78;;;-3.17;83.48
73700;BME280;62005;50.082;8.988;2022-12-18T17:25:18;101684.06;;;-3.59;83.39
73700;BME280;62005;50.082;8.988;2022-12-18T17:27:52;101680.88;;;-3.64;83.71
73700;BME280;62005;50.082;8.988;2022-12-18T17:30:27;101781.06;;;-3.08;83.77
73700;BME280;62005;50.082;8.988;2022-12-18T17:33:14;101753.91;;;-3.24;84.05
73700;BME280;62005;50.082;8.988;2022-12-18T17:35:39;101753.91;;;-3.24;83.73
73700;BME280;62005;50.082;8.988;2022-12-18T17:38:05;101710.81;;;-3.51;83.79
73700;BME280;62005;50.082;8.988;2022-12-18T17:40:53;101773.47;;;-3.00;84.22
73700;BME280;62005;50.082;8.988;2022-12-18T17:43:24;101698.91;;;-3.44;83.95
73700;BME280;62005;50.082;8.988;2022-12-18T17:48:50;101699.06;;;-3.47;83.62
73700;BME280;62005;50.082;8.988;2022-12-18T17:54:01;101690.22;;;-3.46;83.78
73700;BME280;62005;50.082;8.988;2022-12-18T18:40:07;101682.84;;;-3.28;83.90
73700;BME280;62005;50.082;8.988;2022-12-18T19:14:22;101635.53;;;-3.06;83.65
73700;BME280;62005;50.082;8.988;2022-12-18T19:43:01;101679.44;;;-2.53;83.01
73700;BME280;62005;50.082;8.988;2022-12-18T19:45:26;101670.63;;;-2.54;82.69
73700;BME280;62005;50.082;8.988;2022-12-18T20:15:45;101624.66;;;-2.40;81.18
73700;BME280;62005;50.082;8.988;2022-12-18T21:14:13;101651.59;;;-2.10;80.00
73700;BME280;62005;50.082;8.988;2022-12-18T22:14:03;101571.72;;;-2.40;79.54
73700;BME280;62005;50.082;8.988;2022-12-18T23:15:05;101600.41;;;-2.11;80.13
73700;BME280;62005;50.082;8.988;2022-12-18T23:54:46;101573.66;;;-1.95;78.86
